createdAt,value
2018-02-15T00:01:27.450Z,99651
2018-02-15T00:03:57.805Z,99656
2018-02-15T00:06:27.986Z,99652
2018-02-15T00:08:58.430Z,99652
2018-02-15T00:11:28.904Z,99662
2018-02-15T00:13:59.315Z,99656
2018-02-15T00:16:29.505Z,99657
2018-02-15T00:18:59.960Z,99662
2018-02-15T00:21:29.881Z,99671
2018-02-15T00:24:00.380Z,99669
2018-02-15T00:26:30.954Z,99671
2018-02-15T00:29:01.387Z,99681
2018-02-15T00:31:31.755Z,99683
2018-02-15T00:34:02.034Z,99688
2018-02-15T00:36:32.251Z,99693
2018-02-15T00:39:02.026Z,99691
2018-02-15T00:41:32.101Z,99691
2018-02-15T00:44:02.343Z,99688
2018-02-15T00:46:32.965Z,99677
2018-02-15T00:49:03.680Z,99686
2018-02-15T00:51:34.158Z,99696
2018-02-15T00:54:04.794Z,99695
2018-02-15T00:56:35.303Z,99702
2018-02-15T00:59:05.777Z,99709
2018-02-15T01:01:36.463Z,99708
2018-02-15T01:04:06.456Z,99702
2018-02-15T01:06:37.039Z,99703
2018-02-15T01:09:06.930Z,99707
2018-02-15T01:11:37.475Z,99708
2018-02-15T01:14:08.210Z,99716
2018-02-15T01:16:38.566Z,99711
2018-02-15T01:19:08.523Z,99719
2018-02-15T01:21:38.860Z,99723
2018-02-15T01:24:09.024Z,99720
2018-02-15T01:26:39.659Z,99721
2018-02-15T01:29:10.469Z,99722
2018-02-15T01:31:40.944Z,99717
2018-02-15T01:34:11.228Z,99727
2018-02-15T01:36:41.661Z,99733
2018-02-15T01:39:12.092Z,99727
2018-02-15T01:41:42.825Z,99734
2018-02-15T01:44:12.902Z,99728
2018-02-15T01:46:43.400Z,99731
2018-02-15T01:49:13.970Z,99729
2018-02-15T01:51:44.405Z,99729
2018-02-15T01:54:14.592Z,99731
2018-02-15T01:56:44.414Z,99731
2018-02-15T01:59:14.626Z,99736
2018-02-15T02:01:45.132Z,99737
2018-02-15T02:04:15.483Z,99740
2018-02-15T02:06:46.464Z,99744
2018-02-15T02:09:16.780Z,99737
2018-02-15T02:11:46.925Z,99742
2018-02-15T02:14:17.318Z,99744
2018-02-15T02:16:47.997Z,99741
2018-02-15T02:19:18.254Z,99745
2018-02-15T02:21:48.643Z,99743
2018-02-15T02:24:19.025Z,99739
2018-02-15T02:26:49.375Z,99744
2018-02-15T02:29:19.496Z,99738
2018-02-15T02:31:50.425Z,99737
2018-02-15T02:34:20.996Z,99732
2018-02-15T02:36:51.327Z,99727
2018-02-15T02:39:21.825Z,99728
2018-02-15T02:41:52.321Z,99726
2018-02-15T02:44:22.322Z,99723
2018-02-15T02:46:52.805Z,99725
2018-02-15T02:49:23.118Z,99726
2018-02-15T02:51:53.550Z,99726
2018-02-15T02:54:23.290Z,99728
2018-02-15T02:56:53.733Z,99737
2018-02-15T02:59:24.359Z,99737
2018-02-15T03:01:54.785Z,99737
2018-02-15T03:04:24.899Z,99738
2018-02-15T03:06:55.628Z,99740
2018-02-15T03:09:25.549Z,99748
2018-02-15T03:11:56.736Z,99753
2018-02-15T03:14:26.978Z,99755
2018-02-15T03:16:57.144Z,99764
2018-02-15T03:19:27.473Z,99778
2018-02-15T03:21:57.831Z,99781
2018-02-15T03:24:28.232Z,99783
2018-02-15T03:26:58.507Z,99797
2018-02-15T03:29:28.910Z,99801
2018-02-15T03:31:58.930Z,99820
2018-02-15T03:34:29.162Z,99822
2018-02-15T03:36:59.415Z,99834
2018-02-15T03:39:30.134Z,99835
2018-02-15T03:42:01.293Z,99840
2018-02-15T03:44:31.077Z,99839
2018-02-15T03:47:01.394Z,99838
2018-02-15T03:49:31.674Z,99841
2018-02-15T03:52:02.051Z,99843
2018-02-15T03:54:33.233Z,99844
2018-02-15T03:57:03.826Z,99848
2018-02-15T03:59:47.249Z,99847
2018-02-15T04:02:29.839Z,99851
2018-02-15T04:05:00.487Z,99849
2018-02-15T04:07:30.792Z,99853
2018-02-15T04:10:01.148Z,99861
2018-02-15T04:12:31.301Z,99851
2018-02-15T04:15:01.694Z,99841
2018-02-15T04:17:32.002Z,99841
2018-02-15T04:20:02.288Z,99845
2018-02-15T04:22:32.845Z,99845
2018-02-15T04:25:03.276Z,99847
2018-02-15T04:27:33.665Z,99847
2018-02-15T04:30:03.453Z,99850
2018-02-15T04:32:33.790Z,99854
2018-02-15T04:35:04.113Z,99856
2018-02-15T04:37:34.846Z,99859
2018-02-15T04:40:05.493Z,99866
2018-02-15T04:42:35.859Z,99866
2018-02-15T04:45:06.319Z,99867
2018-02-15T04:47:36.754Z,99871
2018-02-15T04:50:07.042Z,99870
2018-02-15T04:52:37.183Z,99867
2018-02-15T04:55:07.643Z,99869
2018-02-15T04:57:37.802Z,99875
2018-02-15T05:00:08.407Z,99885
2018-02-15T05:02:38.746Z,99896
2018-02-15T05:05:09.147Z,99895
2018-02-15T05:07:38.876Z,99895
2018-02-15T05:10:08.680Z,99907
2018-02-15T05:12:38.455Z,99919
2018-02-15T05:15:08.186Z,99924
2018-02-15T05:17:37.934Z,99920
2018-02-15T05:20:07.790Z,99928
2018-02-15T05:22:37.565Z,99933
2018-02-15T05:25:07.387Z,99941
2018-02-15T05:27:37.100Z,99945
2018-02-15T05:30:06.868Z,99940
2018-02-15T05:32:36.715Z,99948
2018-02-15T05:35:06.463Z,99956
2018-02-15T05:37:36.179Z,99953
2018-02-15T05:40:05.909Z,99947
2018-02-15T05:42:35.779Z,99953
2018-02-15T05:45:05.526Z,99960
2018-02-15T05:47:35.299Z,99962
2018-02-15T05:50:05.057Z,99955
2018-02-15T05:52:34.781Z,99955
2018-02-15T05:55:04.578Z,99960
2018-02-15T05:57:34.356Z,99962
2018-02-15T06:00:04.119Z,99960
2018-02-15T06:02:33.855Z,99954
2018-02-15T06:05:03.782Z,99958
2018-02-15T06:07:33.496Z,99956
2018-02-15T06:10:03.359Z,99959
2018-02-15T06:12:33.139Z,99961
2018-02-15T06:15:02.991Z,99969
2018-02-15T06:17:32.852Z,99974
2018-02-15T06:20:02.585Z,99978
2018-02-15T06:22:32.428Z,99979
2018-02-15T06:25:02.154Z,99979
2018-02-15T06:27:32.053Z,99975
2018-02-15T06:30:01.859Z,99980
2018-02-15T06:32:31.632Z,99986
2018-02-15T06:35:01.432Z,99979
2018-02-15T06:37:31.213Z,99987
2018-02-15T06:40:01.030Z,99991
2018-02-15T06:42:30.823Z,99990
2018-02-15T06:45:00.573Z,99982
2018-02-15T06:47:30.391Z,99989
2018-02-15T06:50:00.216Z,99989
2018-02-15T06:52:30.002Z,99991
2018-02-15T06:54:59.797Z,99991
2018-02-15T06:57:29.589Z,99993
2018-02-15T06:59:59.433Z,99997
2018-02-15T07:02:29.220Z,99995
2018-02-15T07:04:59.064Z,100001
2018-02-15T07:07:28.879Z,100009
2018-02-15T07:09:58.623Z,100010
2018-02-15T07:12:28.430Z,100014
2018-02-15T07:14:58.247Z,100017
2018-02-15T07:17:28.105Z,100020
2018-02-15T07:19:57.901Z,100022
2018-02-15T07:22:27.838Z,100022
2018-02-15T07:24:57.670Z,100029
2018-02-15T07:27:27.554Z,100032
2018-02-15T07:29:57.417Z,100038
2018-02-15T07:32:27.248Z,100038
2018-02-15T07:34:57.120Z,100036
2018-02-15T07:37:26.910Z,100031
2018-02-15T07:39:56.676Z,100031
2018-02-15T07:42:26.561Z,100028
2018-02-15T07:44:56.308Z,100034
2018-02-15T07:47:26.118Z,100033
2018-02-15T07:49:55.968Z,100035
2018-02-15T07:52:25.835Z,100040
2018-02-15T07:54:55.744Z,100049
2018-02-15T07:57:25.541Z,100049
2018-02-15T07:59:55.459Z,100054
2018-02-15T08:02:25.255Z,100065
2018-02-15T08:04:55.063Z,100058
2018-02-15T08:07:24.888Z,100058
2018-02-15T08:09:54.705Z,100055
2018-02-15T08:12:24.543Z,100060
2018-02-15T08:14:54.346Z,100059
2018-02-15T08:17:24.185Z,100060
2018-02-15T08:19:54.068Z,100064
2018-02-15T08:22:23.876Z,100068
2018-02-15T08:24:53.606Z,100073
2018-02-15T08:27:23.421Z,100066
2018-02-15T08:29:53.297Z,100064
2018-02-15T08:32:23.133Z,100064
2018-02-15T08:34:52.924Z,100067
2018-02-15T08:37:22.686Z,100065
2018-02-15T08:39:52.447Z,100065
2018-02-15T08:42:22.311Z,100066
2018-02-15T08:44:52.109Z,100068
2018-02-15T08:47:21.902Z,100066
2018-02-15T08:49:51.717Z,100072
2018-02-15T08:52:21.542Z,100073
2018-02-15T08:54:51.369Z,100071
2018-02-15T08:57:21.165Z,100074
2018-02-15T08:59:50.984Z,100068
2018-02-15T09:02:20.802Z,100073
2018-02-15T09:04:50.608Z,100074
2018-02-15T09:07:20.387Z,100073
2018-02-15T09:09:50.185Z,100076
2018-02-15T09:12:19.990Z,100075
2018-02-15T09:14:49.786Z,100070
2018-02-15T09:17:19.637Z,100067
2018-02-15T09:19:49.570Z,100070
2018-02-15T09:22:19.420Z,100079
2018-02-15T09:24:49.234Z,100078
2018-02-15T09:27:19.033Z,100069
2018-02-15T09:29:49.002Z,100069
2018-02-15T09:32:18.936Z,100069
2018-02-15T09:34:48.820Z,100072
2018-02-15T09:37:18.615Z,100069
2018-02-15T09:39:48.496Z,100077
2018-02-15T09:42:18.357Z,100064
2018-02-15T09:44:48.146Z,100067
2018-02-15T09:47:17.979Z,100062
2018-02-15T09:49:47.807Z,100061
2018-02-15T09:52:17.662Z,100054
2018-02-15T09:54:47.497Z,100055
2018-02-15T09:57:17.319Z,100055
2018-02-15T09:59:47.255Z,100054
2018-02-15T10:02:17.066Z,100053
2018-02-15T10:04:46.868Z,100048
2018-02-15T10:07:16.668Z,100054
2018-02-15T10:09:46.530Z,100053
2018-02-15T10:12:16.433Z,100049
2018-02-15T10:14:46.219Z,100049
2018-02-15T10:17:16.076Z,100044
2018-02-15T10:19:45.942Z,100037
2018-02-15T10:22:15.807Z,100038
2018-02-15T10:24:45.614Z,100041
2018-02-15T10:27:15.429Z,100049
2018-02-15T10:29:45.243Z,100035
2018-02-15T10:32:15.052Z,100026
2018-02-15T10:34:44.924Z,100030
2018-02-15T10:37:14.680Z,100021
2018-02-15T10:39:44.515Z,100016
2018-02-15T10:42:14.309Z,100013
2018-02-15T10:44:44.104Z,100021
2018-02-15T10:47:13.864Z,100009
2018-02-15T10:49:43.614Z,100005
2018-02-15T10:52:13.487Z,100008
2018-02-15T10:54:43.287Z,100007
2018-02-15T10:57:13.139Z,100000
2018-02-15T10:59:43.099Z,100007
2018-02-15T11:02:18.465Z,100009
2018-02-15T11:04:53.964Z,100010
2018-02-15T11:07:23.777Z,100006
2018-02-15T11:09:53.634Z,100018
2018-02-15T11:12:23.511Z,100012
2018-02-15T11:14:53.377Z,100008
2018-02-15T11:17:23.209Z,99999
2018-02-15T11:19:53.015Z,99996
2018-02-15T11:22:22.898Z,99995
2018-02-15T11:24:52.701Z,99994
2018-02-15T11:27:22.530Z,99997
2018-02-15T11:29:52.294Z,99985
2018-02-15T11:32:22.053Z,99986
2018-02-15T11:34:51.842Z,99983
2018-02-15T11:37:21.594Z,99985
2018-02-15T11:39:51.486Z,99990
2018-02-15T11:42:21.260Z,99993
2018-02-15T11:44:51.077Z,99988
2018-02-15T11:47:20.916Z,99984
2018-02-15T11:49:50.717Z,99984
2018-02-15T11:52:20.540Z,99985
2018-02-15T11:54:50.423Z,99991
2018-02-15T11:57:20.259Z,99978
2018-02-15T11:59:50.044Z,99978
2018-02-15T12:02:19.860Z,99969
2018-02-15T12:04:49.698Z,99968
2018-02-15T12:07:19.453Z,99967
2018-02-15T12:09:49.257Z,99973
2018-02-15T12:12:19.973Z,99962
2018-02-15T12:14:49.867Z,99970
2018-02-15T12:17:19.765Z,99963
2018-02-15T12:19:49.676Z,99959
2018-02-15T12:22:19.546Z,99957
2018-02-15T12:24:49.360Z,99954
2018-02-15T12:27:19.106Z,99953
2018-02-15T12:29:48.959Z,99957
2018-02-15T12:32:18.829Z,99961
2018-02-15T12:34:48.659Z,99957
2018-02-15T12:37:18.488Z,99952
2018-02-15T12:39:48.386Z,99957
2018-02-15T12:42:18.237Z,99952
2018-02-15T12:44:48.027Z,99959
2018-02-15T12:47:17.884Z,99957
2018-02-15T12:49:47.740Z,99960
2018-02-15T12:52:17.545Z,99961
2018-02-15T12:54:47.380Z,99966
2018-02-15T12:57:17.287Z,99967
2018-02-15T12:59:47.182Z,99960
2018-02-15T13:02:17.041Z,99970
2018-02-15T13:04:46.835Z,99974
2018-02-15T13:07:16.615Z,99970
2018-02-15T13:09:46.371Z,99970
2018-02-15T13:12:27.866Z,99962
2018-02-15T13:14:57.644Z,99978
2018-02-15T13:17:27.443Z,99978
2018-02-15T13:20:09.103Z,99979
2018-02-15T13:22:47.780Z,99980
2018-02-15T13:25:17.637Z,99978
2018-02-15T13:27:59.172Z,99979
2018-02-15T13:30:29.048Z,99985
2018-02-15T13:32:58.839Z,99990
2018-02-15T13:35:28.626Z,99983
2018-02-15T13:37:58.403Z,99980
2018-02-15T13:40:28.202Z,99980
2018-02-15T13:42:57.982Z,99978
2018-02-15T13:45:27.740Z,99975
2018-02-15T13:47:57.549Z,99969
2018-02-15T13:50:27.386Z,99971
2018-02-15T13:52:57.242Z,99974
2018-02-15T13:55:27.115Z,99983
2018-02-15T13:57:56.941Z,99974
2018-02-15T14:00:26.796Z,99974
2018-02-15T14:02:56.537Z,99974
2018-02-15T14:05:26.278Z,99972
2018-02-15T14:07:56.047Z,99972
2018-02-15T14:10:25.803Z,99979
2018-02-15T14:12:55.748Z,99988
2018-02-15T14:15:25.528Z,99988
2018-02-15T14:17:55.403Z,99989
2018-02-15T14:20:25.251Z,99989
2018-02-15T14:22:55.027Z,99986
2018-02-15T14:25:24.787Z,99992
2018-02-15T14:27:54.575Z,99999
2018-02-15T14:30:24.368Z,99996
2018-02-15T14:32:54.209Z,100006
2018-02-15T14:35:24.109Z,100012
2018-02-15T14:37:53.900Z,100010
2018-02-15T14:40:23.780Z,100007
2018-02-15T14:42:53.599Z,100008
2018-02-15T14:45:23.364Z,100015
2018-02-15T14:47:53.171Z,100016
2018-02-15T14:50:23.018Z,100011
2018-02-15T14:52:52.880Z,100014
2018-02-15T14:55:23.429Z,100021
2018-02-15T14:57:53.938Z,100029
2018-02-15T15:00:24.154Z,100031
2018-02-15T15:02:54.453Z,100027
2018-02-15T15:05:24.712Z,100038
2018-02-15T15:07:54.802Z,100044
2018-02-15T15:10:24.820Z,100041
2018-02-15T15:12:55.086Z,100040
2018-02-15T15:15:25.718Z,100042
2018-02-15T15:17:55.522Z,100047
2018-02-15T15:20:25.333Z,100048
2018-02-15T15:22:55.113Z,100050
2018-02-15T15:25:24.852Z,100055
2018-02-15T15:27:54.620Z,100066
2018-02-15T15:30:24.427Z,100061
2018-02-15T15:32:54.232Z,100065
2018-02-15T15:35:24.041Z,100067
2018-02-15T15:37:53.793Z,100081
2018-02-15T15:40:23.635Z,100080
2018-02-15T15:42:53.535Z,100083
2018-02-15T15:45:23.346Z,100090
2018-02-15T15:47:53.087Z,100092
2018-02-15T15:50:22.858Z,100094
2018-02-15T15:52:52.757Z,100096
2018-02-15T15:55:22.580Z,100096
2018-02-15T15:57:52.420Z,100103
2018-02-15T16:00:22.263Z,100099
2018-02-15T16:02:52.042Z,100105
2018-02-15T16:05:21.849Z,100110
2018-02-15T16:07:51.604Z,100114
2018-02-15T16:10:21.387Z,100126
2018-02-15T16:12:51.159Z,100127
2018-02-15T16:15:20.945Z,100133
2018-02-15T16:17:50.810Z,100142
2018-02-15T16:20:20.612Z,100148
2018-02-15T16:22:50.436Z,100147
2018-02-15T16:25:20.192Z,100157
2018-02-15T16:27:50.031Z,100157
2018-02-15T16:30:19.793Z,100165
2018-02-15T16:32:49.560Z,100162
2018-02-15T16:35:19.431Z,100170
2018-02-15T16:37:49.216Z,100172
2018-02-15T16:40:19.028Z,100180
2018-02-15T16:42:48.749Z,100186
2018-02-15T16:45:18.475Z,100182
2018-02-15T16:47:48.299Z,100185
2018-02-15T16:50:18.133Z,100184
2018-02-15T16:52:47.988Z,100187
2018-02-15T16:55:17.801Z,100191
2018-02-15T16:57:47.616Z,100197
2018-02-15T17:00:17.417Z,100197
2018-02-15T17:02:47.172Z,100203
2018-02-15T17:05:17.043Z,100204
2018-02-15T17:07:46.797Z,100207
2018-02-15T17:10:16.599Z,100210
2018-02-15T17:12:46.377Z,100212
2018-02-15T17:15:16.290Z,100216
2018-02-15T17:17:46.140Z,100218
2018-02-15T17:20:15.959Z,100221
2018-02-15T17:22:45.715Z,100224
2018-02-15T17:25:15.467Z,100221
2018-02-15T17:27:45.267Z,100218
2018-02-15T17:30:15.135Z,100226
2018-02-15T17:32:44.925Z,100228
2018-02-15T17:35:14.795Z,100229
2018-02-15T17:37:44.593Z,100231
2018-02-15T17:40:14.352Z,100240
2018-02-15T17:42:44.166Z,100242
2018-02-15T17:45:14.042Z,100246
2018-02-15T17:47:43.857Z,100246
2018-02-15T17:50:13.659Z,100251
2018-02-15T17:52:43.486Z,100253
2018-02-15T17:55:13.253Z,100259
2018-02-15T17:57:43.170Z,100254
2018-02-15T18:00:13.039Z,100264
2018-02-15T18:02:43.053Z,100268
2018-02-15T18:05:12.817Z,100262
2018-02-15T18:07:42.707Z,100263
2018-02-15T18:10:12.539Z,100266
2018-02-15T18:12:42.458Z,100263
2018-02-15T18:15:12.226Z,100272
2018-02-15T18:17:42.072Z,100274
2018-02-15T18:20:11.907Z,100269
2018-02-15T18:22:41.779Z,100262
2018-02-15T18:25:11.619Z,100265
2018-02-15T18:27:41.387Z,100264
2018-02-15T18:30:11.162Z,100270
2018-02-15T18:32:41.029Z,100269
2018-02-15T18:35:10.877Z,100272
2018-02-15T18:37:40.726Z,100273
2018-02-15T18:40:10.501Z,100284
2018-02-15T18:42:40.335Z,100276
2018-02-15T18:45:10.121Z,100273
2018-02-15T18:47:39.989Z,100277
2018-02-15T18:50:10.013Z,100282
2018-02-15T18:52:39.770Z,100288
2018-02-15T18:55:09.668Z,100290
2018-02-15T18:57:39.512Z,100293
2018-02-15T19:00:09.378Z,100297
2018-02-15T19:02:39.255Z,100306
2018-02-15T19:05:09.067Z,100301
2018-02-15T19:07:38.875Z,100304
2018-02-15T19:10:08.632Z,100301
2018-02-15T19:12:38.613Z,100305
2018-02-15T19:15:08.432Z,100305
2018-02-15T19:17:38.255Z,100304
2018-02-15T19:20:08.091Z,100309
2018-02-15T19:22:37.889Z,100306
2018-02-15T19:25:07.663Z,100309
2018-02-15T19:27:37.496Z,100308
2018-02-15T19:30:07.341Z,100315
2018-02-15T19:32:37.154Z,100316
2018-02-15T19:35:07.057Z,100320
2018-02-15T19:37:37.045Z,100318
2018-02-15T19:40:06.822Z,100313
2018-02-15T19:42:36.822Z,100324
2018-02-15T19:45:06.578Z,100324
2018-02-15T19:47:36.474Z,100329
2018-02-15T19:50:06.265Z,100335
2018-02-15T19:52:36.025Z,100331
2018-02-15T19:55:06.005Z,100330
2018-02-15T19:57:35.837Z,100333
2018-02-15T20:00:05.868Z,100330
2018-02-15T20:02:35.863Z,100329
2018-02-15T20:05:05.700Z,100339
2018-02-15T20:07:35.457Z,100343
2018-02-15T20:10:05.243Z,100354
2018-02-15T20:12:34.999Z,100356
2018-02-15T20:15:04.862Z,100360
2018-02-15T20:17:34.706Z,100364
2018-02-15T20:20:20.191Z,100362
2018-02-15T20:22:50.053Z,100372
2018-02-15T20:25:19.866Z,100373
2018-02-15T20:27:55.408Z,100383
2018-02-15T20:30:25.195Z,100383
2018-02-15T20:32:55.005Z,100384
2018-02-15T20:35:24.823Z,100388
2018-02-15T20:38:00.214Z,100385
2018-02-15T20:40:35.649Z,100391
2018-02-15T20:43:05.431Z,100393
2018-02-15T20:45:35.253Z,100401
2018-02-15T20:48:05.087Z,100397
2018-02-15T20:50:40.687Z,100396
2018-02-15T20:53:16.152Z,100393
2018-02-15T20:55:46.190Z,100395
2018-02-15T20:58:16.008Z,100401
2018-02-15T21:00:45.796Z,100412
2018-02-15T21:03:15.541Z,100416
2018-02-15T21:05:45.346Z,100418
2018-02-15T21:08:15.116Z,100414
2018-02-15T21:10:44.969Z,100417
2018-02-15T21:13:14.707Z,100422
2018-02-15T21:15:44.483Z,100425
2018-02-15T21:18:14.302Z,100425
2018-02-15T21:20:44.119Z,100424
2018-02-15T21:23:13.913Z,100424
2018-02-15T21:25:43.660Z,100426
2018-02-15T21:28:13.414Z,100435
2018-02-15T21:30:43.210Z,100434
2018-02-15T21:33:12.990Z,100439
2018-02-15T21:35:42.768Z,100437
2018-02-15T21:38:12.493Z,100440
2018-02-15T21:40:42.335Z,100440
2018-02-15T21:43:12.112Z,100444
2018-02-15T21:45:41.851Z,100449
2018-02-15T21:48:11.635Z,100446
2018-02-15T21:50:41.440Z,100444
2018-02-15T21:53:11.250Z,100443
2018-02-15T21:55:41.124Z,100451
2018-02-15T21:58:11.767Z,100446
2018-02-15T22:00:41.837Z,100449
2018-02-15T22:03:12.037Z,100450
2018-02-15T22:05:45.445Z,100444
2018-02-15T22:08:15.684Z,100450
2018-02-15T22:10:46.542Z,100455
2018-02-15T22:13:17.040Z,100455
2018-02-15T22:15:47.593Z,100454
2018-02-15T22:18:17.898Z,100452
2018-02-15T22:20:48.311Z,100455
2018-02-15T22:23:18.947Z,100456
2018-02-15T22:25:49.416Z,100453
2018-02-15T22:28:19.818Z,100454
2018-02-15T22:30:50.307Z,100456
2018-02-15T22:33:20.380Z,100456
2018-02-15T22:35:50.549Z,100461
2018-02-15T22:38:20.731Z,100457
2018-02-15T22:40:51.331Z,100461
2018-02-15T22:43:22.109Z,100461
2018-02-15T22:45:52.747Z,100458
2018-02-15T22:48:22.977Z,100459
2018-02-15T22:50:53.760Z,100463
2018-02-15T22:53:24.151Z,100464
2018-02-15T22:55:54.682Z,100467
2018-02-15T22:58:24.446Z,100471
2018-02-15T23:00:55.140Z,100472
2018-02-15T23:03:25.572Z,100472
2018-02-15T23:05:56.342Z,100476
2018-02-15T23:08:26.799Z,100474
2018-02-15T23:10:57.587Z,100478
2018-02-15T23:13:27.936Z,100477
2018-02-15T23:15:58.195Z,100473
2018-02-15T23:18:28.117Z,100471
2018-02-15T23:20:58.414Z,100466
2018-02-15T23:23:28.969Z,100466
2018-02-15T23:25:59.289Z,100470
2018-02-15T23:28:29.831Z,100470
2018-02-15T23:30:59.761Z,100472
2018-02-15T23:33:29.750Z,100469
2018-02-15T23:36:00.304Z,100471
2018-02-15T23:38:30.482Z,100473
2018-02-15T23:41:01.253Z,100469
2018-02-15T23:43:31.619Z,100472
2018-02-15T23:46:02.067Z,100478
2018-02-15T23:48:32.368Z,100475
2018-02-15T23:51:02.495Z,100476
2018-02-15T23:53:32.332Z,100472
2018-02-15T23:56:02.811Z,100480
2018-02-15T23:58:33.170Z,100484
